Time;durP1;ratioP1;P1;durP2;ratioP2;P2;SDS_P1;SDS_P2;PMS_P1;PMS_P2;Temp;Humidity;BMP_temperature;BMP_pressure;BME280_temperature;BME280_humidity;BME280_pressure;Samples;Min_cycle;Max_cycle;Signal;HPM_P1;HPM_P2
2023/12/01 00:02:24;;;;;;;2.28;1.38;;;;;;;-3.19;70.64;98646.66;4953134;28;20043;-43
2023/12/01 00:04:50;;;;;;;5.13;1.60;;;;;;;-3.02;70.58;98671.25;4951579;28;20050;-43
2023/12/01 00:07:16;;;;;;;4.55;2.30;;;;;;;-3.01;70.42;98682.28;4921063;29;20053;-43
2023/12/01 00:09:42;;;;;;;3.20;1.83;;;;;;;-3.09;70.54;98666.16;4952200;29;20601;-42
2023/12/01 00:12:08;;;;;;;6.00;2.53;;;;;;;-3.06;70.20;98676.34;4940820;29;20039;-42
2023/12/01 00:14:34;;;;;;;5.78;2.05;;;;;;;-3.08;70.22;98667.84;4939800;29;20054;-42
2023/12/01 00:17:00;;;;;;;5.25;2.53;;;;;;;-3.03;70.77;98673.78;4927698;28;20087;-43
2023/12/01 00:19:26;;;;;;;5.00;1.65;;;;;;;-3.08;70.80;98660.22;4939728;29;20141;-41
2023/12/01 00:21:52;;;;;;;7.57;2.15;;;;;;;-3.17;70.69;98681.38;4935650;29;20039;-42
2023/12/01 00:24:18;;;;;;;5.53;1.95;;;;;;;-3.13;70.65;98683.09;4921311;29;20130;-43
2023/12/01 00:26:45;;;;;;;2.97;1.58;;;;;;;-3.15;70.30;98678.84;4951175;28;20065;-41
2023/12/01 00:29:11;;;;;;;4.55;2.25;;;;;;;-3.15;70.39;98686.47;4951907;28;20061;-42
2023/12/01 00:31:38;;;;;;;2.78;1.60;;;;;;;-3.20;70.32;98689.00;4952638;28;20066;-42
2023/12/01 00:34:04;;;;;;;3.78;1.80;;;;;;;-3.15;70.19;98700.03;4953587;29;20071;-42
2023/12/01 00:36:32;;;;;;;4.25;1.65;;;;;;;-3.14;69.91;98698.34;4941128;29;20102;-42
2023/12/01 00:38:58;;;;;;;5.00;1.83;;;;;;;-3.22;69.22;98687.28;4935280;29;20122;-42
2023/12/01 00:41:24;;;;;;;2.90;1.48;;;;;;;-3.23;69.31;98696.59;4950508;28;20090;-42
2023/12/01 00:43:50;;;;;;;3.97;2.63;;;;;;;-3.26;68.22;98693.19;4926897;28;20046;-43
2023/12/01 00:46:16;;;;;;;4.43;1.95;;;;;;;-3.52;68.29;98632.97;4924196;29;20119;-43
2023/12/01 00:48:42;;;;;;;7.20;2.33;;;;;;;-3.25;68.50;98698.31;4953394;28;20043;-43
2023/12/01 00:51:18;;;;;;;4.22;2.10;;;;;;;-3.27;68.99;98692.34;4951947;29;20043;-43
2023/12/01 00:53:46;;;;;;;5.10;2.38;;;;;;;-3.24;68.93;98686.41;4900671;29;20078;-41
2023/12/01 00:56:13;;;;;;;5.13;1.60;;;;;;;-3.61;68.62;98616.84;4937999;29;20172;-43
2023/12/01 00:58:39;;;;;;;2.70;1.38;;;;;;;-3.43;69.18;98638.06;4889920;29;20159;-42
2023/12/01 01:01:06;;;;;;;4.70;1.88;;;;;;;-3.20;69.56;98678.84;4950017;29;20035;-43
2023/12/01 01:03:34;;;;;;;2.35;1.42;;;;;;;-3.18;69.50;98689.84;4950877;28;20035;-41
2023/12/01 01:06:02;;;;;;;3.92;1.73;;;;;;;-3.20;69.78;98678.00;4921393;29;20087;-41
2023/12/01 01:08:32;;;;;;;4.60;2.42;;;;;;;-3.18;69.95;98689.00;4939025;29;20047;-42
2023/12/01 01:10:58;;;;;;;5.15;1.95;;;;;;;-3.01;70.14;98692.44;4938498;29;20106;-42
2023/12/01 01:13:26;;;;;;;5.65;3.03;;;;;;;-3.05;70.38;98695.84;4950399;28;20419;-50
2023/12/01 01:15:53;;;;;;;4.25;1.52;;;;;;;-3.09;70.95;98694.13;4924668;29;20507;-42
2023/12/01 01:18:20;;;;;;;5.88;2.67;;;;;;;-3.15;70.91;98689.03;4924789;29;20048;-43
2023/12/01 01:20:47;;;;;;;4.38;2.08;;;;;;;-3.12;71.44;98694.94;4926134;29;20078;-42
2023/12/01 01:23:13;;;;;;;5.13;2.53;;;;;;;-3.16;70.34;98697.47;4946868;28;20037;-41
2023/12/01 01:25:39;;;;;;;4.95;2.63;;;;;;;-3.43;70.60;98660.09;4902377;29;20039;-40
2023/12/01 01:28:05;;;;;;;9.45;3.55;;;;;;;-3.27;70.63;98692.34;4936864;29;20086;-42
2023/12/01 01:30:31;;;;;;;9.05;3.70;;;;;;;-3.47;71.07;98649.06;4940677;29;20131;-41
2023/12/01 01:32:57;;;;;;;5.93;2.50;;;;;;;-3.22;70.34;98687.28;4922749;29;20066;-41
2023/12/01 01:35:23;;;;;;;4.90;2.50;;;;;;;-3.26;70.37;98688.97;4948487;29;20246;-41
2023/12/01 01:37:50;;;;;;;3.28;1.63;;;;;;;-3.22;70.64;98690.69;4943206;29;20043;-41
2023/12/01 01:40:16;;;;;;;4.13;1.92;;;;;;;-3.25;70.44;98689.81;4951300;29;20042;-43
2023/12/01 01:42:41;;;;;;;3.53;1.45;;;;;;;-3.20;70.65;98698.31;4923789;28;20047;-46
2023/12/01 01:45:08;;;;;;;9.27;3.25;;;;;;;-3.16;70.85;98697.47;4937733;29;20045;-42
2023/12/01 01:47:34;;;;;;;6.20;2.20;;;;;;;-3.42;70.70;98652.47;4937629;28;20427;-43
2023/12/01 01:50:01;;;;;;;5.03;1.58;;;;;;;-3.38;71.04;98655.88;4940751;29;20429;-44
2023/12/01 01:52:32;;;;;;;6.28;2.58;;;;;;;-3.13;71.20;98694.94;4935057;29;20040;-42
2023/12/01 01:54:58;;;;;;;4.85;2.85;;;;;;;-3.41;70.83;98658.41;4932283;29;20526;-41
2023/12/01 01:57:24;;;;;;;4.03;2.25;;;;;;;-3.19;70.98;98693.22;4935315;29;20047;-43
2023/12/01 01:59:51;;;;;;;7.38;3.08;;;;;;;-3.20;70.92;98703.41;4917113;29;20525;-42
2023/12/01 02:02:16;;;;;;;5.43;2.72;;;;;;;-3.18;71.29;98694.06;4936251;29;20466;-42
2023/12/01 02:04:43;;;;;;;4.65;1.75;;;;;;;-3.17;71.37;98695.78;4936380;29;20039;-42
2023/12/01 02:07:25;;;;;;;3.97;1.95;;;;;;;-3.18;71.23;98694.06;4940311;29;20105;-43
2023/12/01 02:09:51;;;;;;;8.82;2.88;;;;;;;-3.59;71.75;98613.44;4949831;28;20051;-42
2023/12/01 02:12:17;;;;;;;7.45;3.15;;;;;;;-3.11;71.68;98704.28;4948987;29;20047;-43
2023/12/01 02:14:43;;;;;;;7.65;3.47;;;;;;;-3.38;71.42;98660.09;4922285;29;20120;-43
2023/12/01 02:17:09;;;;;;;3.95;2.30;;;;;;;-3.13;71.13;98689.84;4940589;29;20085;-44
2023/12/01 02:19:35;;;;;;;4.22;2.20;;;;;;;-3.09;71.25;98689.06;4940483;29;20505;-41
2023/12/01 02:22:01;;;;;;;8.60;2.92;;;;;;;-3.09;71.27;98691.59;4938989;28;20125;-43
2023/12/01 02:24:27;;;;;;;6.18;3.05;;;;;;;-3.06;70.94;98700.06;4950016;28;20058;-43
2023/12/01 02:26:53;;;;;;;9.15;3.60;;;;;;;-3.06;71.14;98694.97;4942264;29;20044;-43
2023/12/01 02:29:18;;;;;;;7.10;2.45;;;;;;;-3.02;71.61;98690.75;4949041;28;20039;-42
2023/12/01 02:31:44;;;;;;;7.80;2.85;;;;;;;-3.07;71.60;98688.19;4920107;29;20050;-43
2023/12/01 02:34:10;;;;;;;8.93;3.63;;;;;;;-3.07;71.74;98693.28;4947393;28;20047;-43
2023/12/01 02:36:36;;;;;;;14.02;4.68;;;;;;;-3.26;72.01;98650.00;4919539;29;20043;-43
2023/12/01 02:39:03;;;;;;;7.35;2.90;;;;;;;-2.97;72.34;98690.75;4916753;29;20039;-43
2023/12/01 02:41:29;;;;;;;8.30;3.22;;;;;;;-2.91;72.50;98688.25;4933052;29;20047;-44
2023/12/01 02:43:55;;;;;;;7.47;3.03;;;;;;;-3.20;71.85;98643.25;4935072;29;20078;-44
2023/12/01 02:46:22;;;;;;;7.57;3.53;;;;;;;-2.96;71.88;98690.78;4919493;29;20075;-42
2023/12/01 02:48:49;;;;;;;5.72;3.00;;;;;;;-2.93;72.03;98683.16;4930205;28;20095;-42
2023/12/01 02:51:16;;;;;;;4.63;2.33;;;;;;;-3.15;72.38;98653.44;4934224;29;20130;-42
2023/12/01 02:53:42;;;;;;;3.65;2.13;;;;;;;-2.94;71.79;98680.63;4936026;28;20098;-41
2023/12/01 02:56:09;;;;;;;6.70;3.25;;;;;;;-3.02;72.00;98672.94;4937306;29;20098;-43
2023/12/01 02:58:35;;;;;;;9.65;3.25;;;;;;;-3.02;72.13;98690.75;4887278;29;20043;-42
2023/12/01 03:01:03;;;;;;;8.18;3.88;;;;;;;-3.01;72.38;98688.22;4930201;29;20043;-43
2023/12/01 03:03:29;;;;;;;10.88;4.05;;;;;;;-2.97;72.20;98686.53;4914991;29;20036;-44
2023/12/01 03:05:55;;;;;;;5.28;2.72;;;;;;;-3.36;71.99;98618.63;4950501;28;20039;-43
2023/12/01 03:08:21;;;;;;;5.70;2.75;;;;;;;-2.95;71.88;98677.22;4934521;29;20039;-42
2023/12/01 03:10:48;;;;;;;9.48;3.33;;;;;;;-3.16;71.72;98644.09;4935911;29;20102;-43
2023/12/01 03:13:14;;;;;;;7.47;2.80;;;;;;;-2.90;72.04;98677.22;4900149;29;20043;-43
2023/12/01 03:15:41;;;;;;;8.50;3.63;;;;;;;-3.37;71.50;98601.69;4924220;29;20054;-43
2023/12/01 03:18:07;;;;;;;5.22;2.58;;;;;;;-2.89;71.74;98668.78;4940976;29;20077;-43
2023/12/01 03:20:33;;;;;;;11.23;4.25;;;;;;;-2.90;71.36;98672.16;4938729;29;20039;-43
2023/12/01 03:23:00;;;;;;;7.80;3.08;;;;;;;-2.84;71.55;98674.72;4934177;29;20055;-42
2023/12/01 03:25:26;;;;;;;6.43;3.35;;;;;;;-2.91;70.79;98676.38;4932995;29;20102;-42
2023/12/01 03:27:52;;;;;;;10.13;3.90;;;;;;;-2.94;70.70;98673.84;4937110;29;20043;-42
2023/12/01 03:30:19;;;;;;;6.40;3.20;;;;;;;-3.00;70.77;98673.81;4935034;29;20407;-42
2023/12/01 03:32:46;;;;;;;7.80;3.10;;;;;;;-2.97;70.56;98706.88;4934810;29;20089;-41
2023/12/01 03:35:13;;;;;;;8.88;3.97;;;;;;;-3.03;70.70;98672.09;4948472;28;20542;-42
2023/12/01 03:37:39;;;;;;;6.63;3.10;;;;;;;-3.20;70.64;98650.88;4948700;28;20130;-43
2023/12/01 03:40:15;;;;;;;7.50;3.78;;;;;;;-2.99;70.46;98685.69;4933492;29;20610;-43
2023/12/01 03:42:44;;;;;;;7.20;3.90;;;;;;;-3.04;70.33;98700.94;4947629;28;20133;-42
2023/12/01 03:45:12;;;;;;;7.65;3.78;;;;;;;-3.04;70.54;98682.28;4949901;28;20036;-43
2023/12/01 03:47:43;;;;;;;9.48;4.15;;;;;;;-3.14;70.78;98667.84;4919013;29;20054;-42
2023/12/01 03:50:11;;;;;;;8.48;3.80;;;;;;;-3.02;70.77;98681.44;4932269;29;20050;-43
2023/12/01 03:52:41;;;;;;;8.90;3.55;;;;;;;-3.05;70.90;98668.72;4935904;29;20043;-42
2023/12/01 03:55:07;;;;;;;14.23;4.05;;;;;;;-2.94;71.01;98680.63;4919980;28;20053;-43
2023/12/01 03:57:33;;;;;;;5.90;3.35;;;;;;;-2.92;71.17;98668.75;4931602;29;20103;-41
2023/12/01 03:59:59;;;;;;;7.95;3.30;;;;;;;-2.89;71.43;98672.16;4942582;29;20039;-41
2023/12/01 04:02:25;;;;;;;9.30;3.85;;;;;;;-2.85;71.57;98683.19;4933222;29;20098;-42
2023/12/01 04:04:50;;;;;;;10.55;4.30;;;;;;;-2.82;71.56;98680.63;4949543;28;20478;-42
2023/12/01 04:07:17;;;;;;;9.93;3.60;;;;;;;-3.00;71.16;98634.00;4916386;29;20430;-41
2023/12/01 04:09:43;;;;;;;8.77;4.32;;;;;;;-2.68;71.08;98686.63;4931466;29;21412;-42
2023/12/01 04:12:09;;;;;;;7.82;3.15;;;;;;;-2.70;71.01;98691.69;4947084;29;20497;-42
2023/12/01 04:14:35;;;;;;;7.78;3.10;;;;;;;-2.76;71.27;98673.03;4935621;29;20113;-42
2023/12/01 04:17:08;;;;;;;14.20;4.80;;;;;;;-2.76;71.10;98675.56;4928906;29;20098;-42
2023/12/01 04:19:38;;;;;;;12.50;4.50;;;;;;;-2.69;71.35;98673.06;4929627;29;20134;-41
2023/12/01 04:22:05;;;;;;;12.38;3.45;;;;;;;-2.82;71.44;98640.78;4929003;29;20055;-42
2023/12/01 04:24:35;;;;;;;6.93;3.03;;;;;;;-2.55;71.44;98673.06;4929245;29;20523;-42
2023/12/01 04:27:01;;;;;;;9.20;4.60;;;;;;;-2.62;71.09;98674.75;4945941;28;20050;-42
2023/12/01 04:29:29;;;;;;;8.98;3.22;;;;;;;-2.69;71.30;98662.03;4896852;29;20040;-42
2023/12/01 04:31:56;;;;;;;11.57;5.07;;;;;;;-2.92;71.51;98622.97;4946016;28;20062;-42
2023/12/01 04:34:21;;;;;;;11.95;4.68;;;;;;;-2.59;71.57;98671.38;4951106;29;20047;-41
2023/12/01 04:36:50;;;;;;;10.15;3.33;;;;;;;-2.55;71.56;98673.06;4937766;28;20035;-47
2023/12/01 04:39:15;;;;;;;9.60;3.10;;;;;;;-2.55;71.43;98662.88;4950777;29;20042;-55
2023/12/01 04:41:41;;;;;;;8.73;4.15;;;;;;;-2.52;71.69;98651.88;4950147;29;20043;-43
2023/12/01 04:44:07;;;;;;;10.68;4.47;;;;;;;-2.42;71.67;98664.63;4950749;29;20462;-42
2023/12/01 04:46:33;;;;;;;7.97;3.33;;;;;;;-2.57;71.37;98641.69;4952231;28;20035;-42
2023/12/01 04:48:58;;;;;;;4.57;2.58;;;;;;;-2.41;71.64;98668.88;4950620;29;20047;-43
2023/12/01 04:51:24;;;;;;;13.15;4.55;;;;;;;-2.45;71.34;98659.50;4913174;29;20050;-43
2023/12/01 04:53:51;;;;;;;11.43;4.90;;;;;;;-2.39;71.53;98656.97;4934469;29;20051;-43
2023/12/01 04:56:16;;;;;;;10.13;3.75;;;;;;;-2.40;71.37;98651.88;4936973;29;20134;-42
2023/12/01 04:58:42;;;;;;;11.48;5.07;;;;;;;-2.43;71.34;98654.44;4931493;29;20146;-42
2023/12/01 05:01:09;;;;;;;9.98;3.75;;;;;;;-2.33;71.54;98654.44;4951653;29;20038;-44
2023/12/01 05:03:35;;;;;;;6.47;3.08;;;;;;;-2.38;71.28;98645.94;4950216;29;20082;-42
2023/12/01 05:06:01;;;;;;;8.35;3.20;;;;;;;-2.44;71.12;98650.19;4934492;29;20121;-44
2023/12/01 05:08:27;;;;;;;10.75;4.10;;;;;;;-2.42;71.40;98661.22;4948035;29;20039;-43
2023/12/01 05:10:56;;;;;;;13.55;5.07;;;;;;;-2.66;71.47;98614.53;4949637;29;20506;-43
2023/12/01 05:13:22;;;;;;;13.80;5.40;;;;;;;-2.41;71.45;98643.41;4929818;29;20519;-42
2023/12/01 05:15:48;;;;;;;10.32;4.22;;;;;;;-2.38;71.74;98645.09;4917836;29;20043;-45
2023/12/01 05:18:14;;;;;;;11.80;4.47;;;;;;;-2.32;71.96;98645.09;4934704;29;20485;-41
2023/12/01 05:20:40;;;;;;;14.00;5.75;;;;;;;-2.26;72.11;98643.41;4951044;29;20065;-44
2023/12/01 05:23:09;;;;;;;12.50;5.13;;;;;;;-2.21;71.79;98630.69;4950943;28;20507;-44
2023/12/01 05:25:41;;;;;;;12.57;4.70;;;;;;;-2.25;71.80;98634.91;4933790;29;20062;-43
2023/12/01 05:28:08;;;;;;;16.27;3.28;;;;;;;-2.31;71.39;98639.16;4950233;28;20042;-44
2023/12/01 05:30:36;;;;;;;8.77;2.97;;;;;;;-2.40;71.36;98634.06;4934393;29;20074;-43
2023/12/01 05:33:04;;;;;;;10.95;4.50;;;;;;;-2.38;71.50;98632.38;4949617;29;20047;-44
2023/12/01 05:35:31;;;;;;;16.25;5.40;;;;;;;-2.59;71.52;98587.41;4937411;29;20045;-42
2023/12/01 05:37:58;;;;;;;11.43;5.40;;;;;;;-2.37;71.75;98629.84;4949025;28;20140;-43
2023/12/01 05:40:26;;;;;;;8.90;4.25;;;;;;;-2.37;71.86;98621.34;4949124;29;20039;-43
2023/12/01 05:42:54;;;;;;;10.70;4.05;;;;;;;-2.31;72.03;98624.75;4934268;29;20098;-42
2023/12/01 05:45:25;;;;;;;11.45;4.75;;;;;;;-2.27;72.03;98633.22;4934252;29;20051;-41
2023/12/01 05:47:54;;;;;;;8.13;3.75;;;;;;;-2.34;71.43;98629.81;4929218;29;20050;-43
2023/12/01 05:50:24;;;;;;;9.32;4.00;;;;;;;-2.39;71.01;98626.44;4920453;29;20051;-43
2023/12/01 05:52:52;;;;;;;7.95;3.50;;;;;;;-2.29;71.63;98625.59;4950566;28;20051;-42
2023/12/01 05:55:20;;;;;;;7.50;3.70;;;;;;;-2.28;71.18;98629.81;4945944;29;20499;-43
2023/12/01 05:57:47;;;;;;;8.27;3.30;;;;;;;-2.26;71.57;98629.84;4931913;29;20047;-45
2023/12/01 06:00:17;;;;;;;11.13;4.53;;;;;;;-2.22;71.40;98645.09;4946665;29;20054;-42
2023/12/01 06:02:48;;;;;;;9.77;4.32;;;;;;;-2.21;71.26;98639.16;4934614;29;20550;-43
2023/12/01 06:05:15;;;;;;;5.78;2.72;;;;;;;-2.27;70.98;98641.72;4920208;29;20565;-42
2023/12/01 06:07:43;;;;;;;5.80;2.97;;;;;;;-2.25;71.15;98650.19;4950225;28;20047;-43
2023/12/01 06:10:13;;;;;;;8.00;3.83;;;;;;;-2.38;71.24;98619.66;4949754;28;20073;-44
2023/12/01 06:12:39;;;;;;;;;;;;;;;-2.24;70.98;98639.16;4936112;29;20094;-42
2023/12/01 06:15:06;;;;;;;8.15;3.55;;;;;;;-2.32;71.11;98642.56;4949823;28;20006;-41
2023/12/01 06:17:33;;;;;;;13.60;4.35;;;;;;;-2.34;71.25;98640.00;4950482;28;20425;-43
2023/12/01 06:19:59;;;;;;;10.82;4.55;;;;;;;-2.31;71.57;98645.13;4950321;28;20807;-42
2023/12/01 06:22:25;;;;;;;10.52;4.57;;;;;;;-2.25;71.78;98636.63;4950268;28;20047;-46
2023/12/01 06:24:51;;;;;;;8.40;3.40;;;;;;;-2.53;71.75;98592.50;4948941;29;20464;-43
2023/12/01 06:27:16;;;;;;;11.15;4.18;;;;;;;-2.34;71.89;98614.56;4949175;28;20518;-43
2023/12/01 06:29:44;;;;;;;11.38;4.47;;;;;;;-2.16;71.89;98634.06;4934284;29;20051;-43
2023/12/01 06:32:10;;;;;;;12.68;5.35;;;;;;;-2.16;71.75;98632.38;4937784;29;20050;-43
2023/12/01 06:34:36;;;;;;;9.40;4.10;;;;;;;-2.31;71.56;98594.22;4935425;29;20062;-43
2023/12/01 06:37:01;;;;;;;8.32;3.53;;;;;;;-2.08;71.62;98609.44;4952296;28;20699;-43
2023/12/01 06:39:28;;;;;;;9.68;3.58;;;;;;;-2.07;71.14;98633.22;4947901;29;20047;-43
2023/12/01 06:41:54;;;;;;;10.10;4.38;;;;;;;-2.04;71.31;98616.22;4949256;29;20387;-43
2023/12/01 06:44:20;;;;;;;8.50;3.83;;;;;;;-2.19;71.92;98575.50;4936046;29;20470;-43
2023/12/01 06:46:46;;;;;;;10.25;4.63;;;;;;;-1.94;71.68;98624.72;4934780;28;20129;-43
2023/12/01 06:49:12;;;;;;;10.25;4.15;;;;;;;-2.13;71.70;98594.19;4937791;29;20129;-42
2023/12/01 06:51:39;;;;;;;8.18;3.55;;;;;;;-1.89;71.75;98628.09;4932564;28;20434;-43
2023/12/01 06:54:05;;;;;;;8.10;4.28;;;;;;;-1.99;71.29;98618.78;4932855;29;20039;-43
2023/12/01 06:56:30;;;;;;;12.23;4.60;;;;;;;-2.02;71.33;98622.16;4949639;28;20054;-44
2023/12/01 06:58:56;;;;;;;13.10;4.18;;;;;;;-1.92;71.29;98635.72;4921190;29;20044;-44
2023/12/01 07:01:22;;;;;;;8.38;3.47;;;;;;;-2.26;71.11;98579.78;4948947;28;20515;-42
2023/12/01 07:03:48;;;;;;;10.50;3.53;;;;;;;-2.00;71.20;98623.03;4936082;29;20128;-43
2023/12/01 07:06:16;;;;;;;10.35;5.03;;;;;;;-1.98;71.32;98623.84;4951619;28;20607;-43
2023/12/01 07:08:42;;;;;;;8.13;3.10;;;;;;;-2.09;71.30;98594.19;4920754;29;20189;-42
2023/12/01 07:11:08;;;;;;;11.68;4.15;;;;;;;-1.88;71.64;98630.63;4934950;29;20494;-44
2023/12/01 07:13:34;;;;;;;10.48;4.07;;;;;;;-2.10;71.32;98606.06;4939292;29;20229;-44
2023/12/01 07:16:09;;;;;;;12.93;4.03;;;;;;;-1.94;71.17;98627.25;4921351;29;20039;-43
2023/12/01 07:18:38;;;;;;;11.20;4.63;;;;;;;-2.21;71.19;98593.34;4949582;29;20043;-43
2023/12/01 07:21:06;;;;;;;12.32;5.05;;;;;;;-1.88;71.54;98617.88;4936116;29;20043;-45
2023/12/01 07:23:34;;;;;;;15.25;5.05;;;;;;;-1.81;71.82;98631.47;4951007;28;20073;-43
2023/12/01 07:26:00;;;;;;;9.63;4.30;;;;;;;-2.05;71.81;98583.13;4934902;29;20562;-43
2023/12/01 07:28:27;;;;;;;11.23;4.80;;;;;;;-2.02;71.73;98588.22;4948182;29;20082;-42
2023/12/01 07:30:53;;;;;;;5.72;2.92;;;;;;;-1.84;71.34;98616.19;4947466;29;20463;-42
2023/12/01 07:33:19;;;;;;;10.68;3.97;;;;;;;-1.80;71.02;98616.19;4935002;29;20039;-43
2023/12/01 07:35:45;;;;;;;13.40;5.70;;;;;;;-1.84;70.98;98621.31;4935115;29;20434;-42
2023/12/01 07:38:11;;;;;;;8.32;3.55;;;;;;;-1.85;70.64;98615.34;4931987;29;20042;-44
2023/12/01 07:40:37;;;;;;;11.40;4.72;;;;;;;-1.80;70.91;98610.25;4947870;29;20061;-42
2023/12/01 07:43:03;;;;;;;10.48;4.10;;;;;;;-1.77;70.52;98605.13;4919991;28;20142;-44
2023/12/01 07:45:29;;;;;;;9.85;4.68;;;;;;;-1.66;70.78;98617.84;4919551;29;20048;-43
2023/12/01 07:47:55;;;;;;;10.10;3.60;;;;;;;-1.67;71.12;98619.53;4933479;29;20062;-43
2023/12/01 07:50:21;;;;;;;12.15;4.70;;;;;;;-1.69;71.23;98600.03;4949443;28;20043;-43
2023/12/01 07:52:49;;;;;;;12.18;5.15;;;;;;;-1.66;71.14;98603.41;4920749;28;20426;-43
2023/12/01 07:55:15;;;;;;;15.45;5.50;;;;;;;-1.51;71.90;98600.78;4931598;29;20043;-43
2023/12/01 07:57:41;;;;;;;12.27;4.88;;;;;;;-1.30;72.34;98604.97;4947471;29;20410;-44
2023/12/01 08:00:14;;;;;;;13.18;4.72;;;;;;;-1.36;71.66;98597.38;4917955;29;20093;-43
2023/12/01 08:02:51;;;;;;;8.88;3.97;;;;;;;-1.47;71.87;98587.22;4945773;28;20032;-43
2023/12/01 08:05:18;;;;;;;10.63;5.30;;;;;;;-1.69;72.04;98564.34;4948147;29;20046;-44
2023/12/01 08:07:51;;;;;;;11.07;4.65;;;;;;;-1.63;72.73;98546.50;4931794;28;20066;-45
2023/12/01 08:10:21;;;;;;;15.77;5.20;;;;;;;-1.34;73.20;98585.44;4949389;29;20122;-45
2023/12/01 08:12:49;;;;;;;13.30;5.50;;;;;;;-1.31;73.26;98588.00;4949631;29;20067;-42
2023/12/01 08:15:16;;;;;;;11.75;5.40;;;;;;;-1.29;73.83;98578.63;4949488;29;20051;-43
2023/12/01 08:17:44;;;;;;;12.25;5.07;;;;;;;-1.29;73.22;98586.25;4918575;29;20039;-44
2023/12/01 08:20:10;;;;;;;9.15;3.45;;;;;;;-1.38;73.38;98584.63;4920316;29;20503;-42
2023/12/01 08:22:43;;;;;;;11.10;4.47;;;;;;;-1.44;73.00;98587.19;4918433;29;20078;-52
2023/12/01 08:25:09;;;;;;;11.45;4.97;;;;;;;-1.62;72.94;98556.66;4920547;29;20058;-42
2023/12/01 08:27:37;;;;;;;13.32;5.15;;;;;;;-1.67;73.42;98535.47;4950070;29;20078;-44
2023/12/01 08:30:03;;;;;;;10.40;4.28;;;;;;;-1.39;74.54;98569.31;4938487;29;20102;-43
2023/12/01 08:32:32;;;;;;;14.75;5.45;;;;;;;-1.52;75.15;98542.22;4936466;29;20073;-42
2023/12/01 08:34:58;;;;;;;12.20;5.57;;;;;;;-1.58;75.80;98502.31;4925523;29;20039;-42
2023/12/01 08:37:24;;;;;;;10.00;4.53;;;;;;;-1.39;75.52;98531.94;4918953;29;20059;-44
2023/12/01 08:39:50;;;;;;;15.85;6.22;;;;;;;-1.13;76.31;98576.84;4923400;29;20129;-42
2023/12/01 08:42:18;;;;;;;10.27;4.78;;;;;;;-1.04;76.20;98575.06;4937595;29;20566;-42
2023/12/01 08:44:44;;;;;;;7.28;3.55;;;;;;;-1.17;75.09;98565.81;4921038;29;20427;-43
2023/12/01 08:47:13;;;;;;;13.80;5.57;;;;;;;-1.31;76.19;98542.09;4936254;29;20125;-42
2023/12/01 08:49:42;;;;;;;13.73;6.00;;;;;;;-1.24;75.69;98576.88;4936056;29;20513;-42
2023/12/01 08:52:08;;;;;;;11.75;4.05;;;;;;;-1.49;76.82;98535.41;4950357;28;20519;-41
2023/12/01 08:54:34;;;;;;;12.73;5.03;;;;;;;-1.17;78.21;98573.47;4919829;29;20047;-42
2023/12/01 08:57:01;;;;;;;9.00;4.50;;;;;;;-1.24;77.71;98565.84;4934653;29;20590;-43
2023/12/01 08:59:27;;;;;;;14.32;6.35;;;;;;;-1.25;78.70;98567.53;4933312;28;20051;-41
2023/12/01 09:01:53;;;;;;;15.10;6.80;;;;;;;-1.26;78.83;98560.78;4930155;29;20067;-45
2023/12/01 09:04:21;;;;;;;10.57;5.50;;;;;;;-1.12;80.66;98558.13;4950767;29;20127;-44
2023/12/01 09:06:47;;;;;;;12.18;5.25;;;;;;;-1.13;80.62;98548.78;4933302;29;20055;-43
2023/12/01 09:09:13;;;;;;;15.35;4.75;;;;;;;-1.12;80.91;98553.88;4934462;29;20133;-44
2023/12/01 09:11:39;;;;;;;10.90;5.55;;;;;;;-1.21;79.93;98553.94;4948515;29;20133;-43
2023/12/01 09:14:04;;;;;;;17.00;7.32;;;;;;;-1.44;80.49;98510.72;4949909;29;20065;-43
2023/12/01 09:16:31;;;;;;;12.25;5.95;;;;;;;-1.21;82.42;98502.97;4951186;29;20039;-42
2023/12/01 09:18:57;;;;;;;17.15;6.13;;;;;;;-0.79;84.04;98551.97;4919234;29;20549;-43
2023/12/01 09:21:23;;;;;;;11.90;5.80;;;;;;;-0.78;84.63;98556.19;4935239;28;20130;-45
2023/12/01 09:23:50;;;;;;;13.20;5.30;;;;;;;-0.90;84.88;98549.50;4944007;29;20041;-44
2023/12/01 09:26:20;;;;;;;12.95;6.20;;;;;;;-1.06;82.83;98543.66;4950625;28;20043;-42
2023/12/01 09:28:48;;;;;;;14.98;6.38;;;;;;;-1.08;83.71;98539.41;4948989;29;20047;-43
2023/12/01 09:31:14;;;;;;;16.75;6.25;;;;;;;-1.06;84.49;98537.69;4935384;29;20055;-43
2023/12/01 09:33:40;;;;;;;12.05;5.38;;;;;;;-0.93;86.64;98527.38;4949038;29;20047;-45
2023/12/01 09:36:06;;;;;;;12.90;6.38;;;;;;;-0.77;88.33;98530.69;4933097;29;20053;-40
2023/12/01 09:38:32;;;;;;;17.25;6.78;;;;;;;-0.63;89.76;98520.38;4918457;29;20494;-42
2023/12/01 09:40:58;;;;;;;16.92;6.40;;;;;;;-0.49;90.96;98532.16;4949177;28;20046;-41
2023/12/01 09:43:24;;;;;;;11.73;5.10;;;;;;;-0.61;90.42;98536.50;4933719;29;20119;-42
2023/12/01 09:45:52;;;;;;;24.25;6.30;;;;;;;-0.87;87.72;98531.59;4950498;29;20122;-43
2023/12/01 09:48:21;;;;;;;13.45;5.65;;;;;;;-0.97;87.22;98523.19;4948806;29;20503;-43
2023/12/01 09:50:47;;;;;;;12.05;6.10;;;;;;;-0.92;88.05;98524.00;4929722;29;20046;-42
2023/12/01 09:53:14;;;;;;;14.38;6.00;;;;;;;-0.98;88.62;98497.69;4949868;28;20057;-42
2023/12/01 09:55:40;;;;;;;16.33;6.55;;;;;;;-1.22;87.13;98462.16;4933530;29;20047;-41
2023/12/01 09:58:06;;;;;;;18.17;7.13;;;;;;;-0.83;88.83;98507.75;4933614;29;20054;-43
2023/12/01 10:00:32;;;;;;;18.90;6.78;;;;;;;-0.91;90.41;98472.13;4950066;28;20116;-45
2023/12/01 10:02:58;;;;;;;12.88;6.15;;;;;;;-0.76;89.82;98498.34;4948815;29;20043;-43
2023/12/01 10:05:25;;;;;;;16.13;6.82;;;;;;;-0.82;89.72;98486.50;4949350;29;20170;-44
2023/12/01 10:07:51;;;;;;;16.50;6.22;;;;;;;-0.71;90.41;98486.41;4949124;28;20407;-42
2023/12/01 10:10:22;;;;;;;13.57;5.90;;;;;;;-0.67;91.02;98480.41;4948972;28;20130;-42
2023/12/01 10:13:03;;;;;;;14.43;5.75;;;;;;;-0.83;91.27;98449.06;4933407;29;20138;-42
2023/12/01 10:15:32;;;;;;;16.02;7.78;;;;;;;-0.69;91.76;98467.69;4948616;29;20039;-42
2023/12/01 10:18:23;;;;;;;14.30;5.75;;;;;;;-0.98;92.08;98410.97;4932959;29;20510;-42
2023/12/01 10:21:02;;;;;;;15.65;7.05;;;;;;;-0.74;90.72;98469.44;4948158;28;20050;-44
2023/12/01 10:23:29;;;;;;;13.30;5.60;;;;;;;-0.81;90.18;98459.28;4949727;28;20039;-42
2023/12/01 10:25:57;;;;;;;13.57;6.45;;;;;;;-0.88;89.46;98450.81;4934013;29;20423;-43
2023/12/01 10:28:39;;;;;;;9.45;5.50;;;;;;;-0.83;89.68;98464.38;4907488;29;20487;-43
2023/12/01 10:31:06;;;;;;;15.73;6.10;;;;;;;-0.81;90.31;98461.84;4916941;29;20078;-42
2023/12/01 10:33:34;;;;;;;13.52;6.03;;;;;;;-0.74;92.30;98454.13;4907996;29;20079;-42
2023/12/01 10:36:10;;;;;;;14.60;6.45;;;;;;;-0.73;92.36;98449.88;4914131;29;20609;-42
2023/12/01 10:38:37;;;;;;;18.27;7.20;;;;;;;-0.72;93.38;98441.34;4947078;28;20043;-42
2023/12/01 10:41:04;;;;;;;19.00;7.82;;;;;;;-0.80;94.34;98417.59;4932741;29;20039;-41
2023/12/01 10:43:31;;;;;;;15.63;5.65;;;;;;;-0.42;95.82;98441.88;4949659;29;20039;-42
2023/12/01 10:46:07;;;;;;;16.45;6.75;;;;;;;-0.48;96.25;98438.56;4930902;29;20207;-42
2023/12/01 10:48:34;;;;;;;17.65;7.55;;;;;;;-0.50;96.20;98430.06;4947609;28;20055;-42
2023/12/01 10:51:03;;;;;;;16.23;6.88;;;;;;;-0.49;96.44;98426.66;4917853;29;20050;-42
2023/12/01 10:53:30;;;;;;;15.98;6.95;;;;;;;-0.42;97.78;98429.09;4913125;28;20048;-42
2023/12/01 10:56:01;;;;;;;14.60;6.78;;;;;;;-0.44;97.66;98414.69;4948391;29;20817;-42
2023/12/01 10:58:27;;;;;;;20.45;8.05;;;;;;;-0.67;97.77;98379.19;4936934;29;20096;-41
2023/12/01 11:00:57;;;;;;;18.10;7.47;;;;;;;-0.50;98.52;98371.34;4915649;29;20570;-44
2023/12/01 11:03:29;;;;;;;18.52;7.03;;;;;;;-0.42;99.36;98370.38;4949569;29;20077;-47
2023/12/01 11:06:01;;;;;;;14.57;6.93;;;;;;;-0.29;99.42;98396.63;4933015;28;20046;-44
2023/12/01 11:08:56;;;;;;;16.10;7.30;;;;;;;-0.23;99.52;98401.66;4915524;29;20071;-41
2023/12/01 11:11:52;;;;;;;19.05;7.03;;;;;;;-0.28;99.29;98405.16;4940013;29;20101;-45
2023/12/01 11:14:20;;;;;;;15.40;6.97;;;;;;;-0.23;99.69;98401.66;4934331;29;20514;-42
2023/12/01 11:16:47;;;;;;;19.50;8.63;;;;;;;-0.18;100.00;98402.47;4935975;29;20522;-43
2023/12/01 11:19:15;;;;;;;20.08;8.35;;;;;;;-0.25;100.00;98399.97;4935336;29;20430;-41
2023/12/01 11:21:42;;;;;;;18.67;9.50;;;;;;;-0.24;100.00;98392.31;4939145;29;20042;-45
2023/12/01 11:24:35;;;;;;;21.05;8.30;;;;;;;-0.08;100.00;98390.41;4909875;28;20418;-42
2023/12/01 11:27:03;;;;;;;22.05;9.57;;;;;;;-0.10;100.00;98392.97;4941957;29;20102;-44
2023/12/01 11:29:32;;;;;;;19.52;9.40;;;;;;;-0.12;100.00;98384.50;4941283;29;20472;-42
2023/12/01 11:31:59;;;;;;;24.75;9.55;;;;;;;-0.45;100.00;98356.81;4918086;29;20473;-42